createdAt,value
2017-12-23T00:00:24.103Z,90.10
2017-12-23T00:01:24.102Z,94.20
2017-12-23T00:02:24.112Z,89.00
2017-12-23T00:03:24.136Z,84.90
2017-12-23T00:04:24.133Z,89.30
2017-12-23T00:05:24.142Z,83.70
2017-12-23T00:06:24.152Z,81.50
2017-12-23T00:07:24.158Z,84.70
2017-12-23T00:08:24.176Z,81.40
2017-12-23T00:09:24.850Z,92.60
2017-12-23T00:10:24.193Z,78.40
2017-12-23T00:11:24.192Z,81.20
2017-12-23T00:12:24.205Z,85.40
2017-12-23T00:13:24.214Z,82.50
2017-12-23T00:14:24.218Z,83.30
2017-12-23T00:15:24.232Z,87.60
2017-12-23T00:16:24.236Z,79.80
2017-12-23T00:17:24.218Z,88.50
2017-12-23T00:18:24.222Z,87.70
2017-12-23T00:19:24.228Z,82.00
2017-12-23T00:20:24.245Z,83.70
2017-12-23T00:21:24.250Z,92.30
2017-12-23T00:22:24.292Z,85.00
2017-12-23T00:23:24.269Z,86.20
2017-12-23T00:24:24.285Z,87.00
2017-12-23T00:25:24.285Z,91.40
2017-12-23T00:26:24.303Z,93.90
2017-12-23T00:27:24.321Z,100.60
2017-12-23T00:28:24.312Z,93.70
2017-12-23T00:29:24.317Z,104.20
2017-12-23T00:30:24.326Z,105.10
2017-12-23T00:31:24.338Z,88.40
2017-12-23T00:32:24.335Z,96.70
2017-12-23T00:33:24.351Z,97.30
2017-12-23T00:34:24.357Z,98.90
2017-12-23T00:35:24.364Z,111.80
2017-12-23T00:36:24.382Z,102.90
2017-12-23T00:37:24.485Z,99.50
2017-12-23T00:38:24.396Z,114.00
2017-12-23T00:39:24.407Z,106.20
2017-12-23T00:40:24.412Z,97.50
2017-12-23T00:41:24.418Z,92.50
2017-12-23T00:42:24.436Z,98.90
2017-12-23T00:43:24.456Z,104.30
2017-12-23T00:44:24.440Z,94.80
2017-12-23T00:45:24.465Z,97.00
2017-12-23T00:46:24.463Z,98.90
2017-12-23T00:47:24.461Z,98.30
2017-12-23T00:48:24.496Z,104.50
2017-12-23T00:49:24.488Z,98.40
2017-12-23T00:50:24.495Z,104.60
2017-12-23T00:51:24.500Z,109.20
2017-12-23T00:52:24.555Z,102.10
2017-12-23T00:53:24.521Z,99.00
2017-12-23T00:54:24.534Z,107.60
2017-12-23T00:55:24.531Z,106.10
2017-12-23T00:56:24.548Z,97.40
2017-12-23T00:57:24.555Z,99.40
2017-12-23T00:58:24.566Z,95.40
2017-12-23T00:59:24.579Z,97.40
2017-12-23T01:00:24.588Z,96.10
2017-12-23T01:01:24.585Z,105.90
2017-12-23T01:02:24.597Z,99.80
2017-12-23T01:03:24.611Z,100.90
2017-12-23T01:04:24.616Z,102.80
2017-12-23T01:05:24.625Z,106.00
2017-12-23T01:07:24.635Z,111.40
2017-12-23T01:08:24.648Z,104.10
2017-12-23T01:09:24.659Z,106.50
2017-12-23T01:10:24.665Z,109.90
2017-12-23T01:11:24.679Z,108.60
2017-12-23T01:12:24.687Z,117.60
2017-12-23T01:13:24.689Z,113.70
2017-12-23T01:14:24.699Z,115.50
2017-12-23T01:15:24.701Z,111.60
2017-12-23T01:16:24.718Z,108.50
2017-12-23T01:17:24.721Z,101.30
2017-12-23T01:18:24.732Z,109.80
2017-12-23T01:19:24.743Z,109.40
2017-12-23T01:20:24.749Z,110.70
2017-12-23T01:21:24.762Z,109.90
2017-12-23T01:22:24.763Z,112.40
2017-12-23T01:23:24.767Z,108.50
2017-12-23T01:24:24.787Z,116.30
2017-12-23T01:25:24.779Z,105.50
2017-12-23T01:26:24.788Z,111.90
2017-12-23T01:27:24.805Z,114.50
2017-12-23T01:28:24.817Z,112.70
2017-12-23T01:29:24.819Z,115.80
2017-12-23T01:30:24.828Z,107.30
2017-12-23T01:31:24.836Z,111.90
2017-12-23T01:32:24.841Z,112.20
2017-12-23T01:33:24.851Z,113.50
2017-12-23T01:34:24.862Z,116.30
2017-12-23T01:35:24.871Z,130.20
2017-12-23T01:36:24.874Z,125.70
2017-12-23T01:37:24.878Z,118.50
2017-12-23T01:38:24.932Z,122.50
2017-12-23T01:39:24.902Z,121.60
2017-12-23T01:40:24.909Z,131.80
2017-12-23T01:41:24.917Z,129.00
2017-12-23T01:42:24.934Z,120.10
2017-12-23T01:43:24.933Z,131.60
2017-12-23T01:44:24.943Z,124.50
2017-12-23T01:45:24.949Z,123.40
2017-12-23T01:46:24.956Z,132.30
2017-12-23T01:47:24.965Z,119.10
2017-12-23T01:48:25.100Z,122.80
2017-12-23T01:49:24.983Z,122.40
2017-12-23T01:50:25.006Z,119.60
2017-12-23T01:51:24.997Z,131.70
2017-12-23T01:52:25.012Z,125.10
2017-12-23T01:53:25.012Z,131.90
2017-12-23T01:54:25.024Z,125.20
2017-12-23T01:55:25.038Z,122.80
2017-12-23T01:56:25.047Z,123.60
2017-12-23T01:57:25.052Z,127.60
2017-12-23T01:58:25.059Z,122.40
2017-12-23T01:59:25.065Z,119.60
2017-12-23T02:00:27.061Z,124.40
2017-12-23T02:01:25.089Z,123.80
2017-12-23T02:02:25.089Z,110.80
2017-12-23T02:03:25.082Z,120.60
2017-12-23T02:04:25.098Z,123.20
2017-12-23T02:05:25.112Z,121.10
2017-12-23T02:06:25.113Z,127.70
2017-12-23T02:07:25.129Z,130.70
2017-12-23T02:08:25.132Z,130.10
2017-12-23T02:09:25.143Z,132.70
2017-12-23T02:10:25.145Z,127.40
2017-12-23T02:11:25.164Z,132.60
2017-12-23T02:12:25.165Z,124.80
2017-12-23T02:13:25.178Z,123.60
2017-12-23T02:14:25.181Z,113.40
2017-12-23T02:15:25.196Z,133.80
2017-12-23T02:16:25.198Z,120.50
2017-12-23T02:17:25.206Z,121.60
2017-12-23T02:18:25.216Z,118.50
2017-12-23T02:19:25.214Z,114.60
2017-12-23T02:20:25.224Z,104.50
2017-12-23T02:21:25.240Z,89.70
2017-12-23T02:22:25.244Z,82.90
2017-12-23T02:24:25.262Z,89.30
2017-12-23T02:25:25.267Z,90.80
2017-12-23T02:26:25.273Z,88.00
2017-12-23T02:27:25.286Z,86.90
2017-12-23T02:28:25.292Z,80.40
2017-12-23T02:29:25.298Z,80.20
2017-12-23T02:30:25.312Z,78.10
2017-12-23T02:32:25.324Z,64.30
2017-12-23T02:33:25.336Z,74.50
2017-12-23T02:34:25.336Z,67.90
2017-12-23T02:35:25.348Z,68.30
2017-12-23T02:36:25.359Z,62.80
2017-12-23T02:37:25.363Z,61.10
2017-12-23T02:38:25.371Z,61.20
2017-12-23T02:39:25.386Z,53.40
2017-12-23T02:40:25.385Z,50.60
2017-12-23T02:41:25.398Z,49.80
2017-12-23T02:42:25.406Z,46.60
2017-12-23T02:43:25.410Z,43.10
2017-12-23T02:44:25.416Z,40.20
2017-12-23T02:45:25.430Z,38.20
2017-12-23T02:46:25.431Z,41.70
2017-12-23T02:47:25.446Z,37.50
2017-12-23T02:48:25.452Z,35.80
2017-12-23T02:49:25.449Z,35.40
2017-12-23T02:50:25.463Z,37.40
2017-12-23T02:51:25.478Z,35.20
2017-12-23T02:52:25.485Z,34.60
2017-12-23T02:53:25.495Z,31.90
2017-12-23T02:54:25.510Z,32.90
2017-12-23T02:55:25.513Z,32.80
2017-12-23T02:56:25.519Z,28.40
2017-12-23T02:57:25.525Z,30.00
2017-12-23T02:58:25.538Z,32.60
2017-12-23T02:59:25.536Z,30.70
2017-12-23T03:00:25.556Z,26.20
2017-12-23T03:01:25.554Z,30.40
2017-12-23T03:02:25.567Z,26.20
2017-12-23T03:03:25.575Z,25.20
2017-12-23T03:04:25.578Z,29.90
2017-12-23T03:05:25.599Z,28.10
2017-12-23T03:06:25.600Z,29.40
2017-12-23T03:07:25.612Z,28.30
2017-12-23T03:08:25.612Z,28.70
2017-12-23T03:09:25.624Z,26.90
2017-12-23T03:10:25.628Z,28.40
2017-12-23T03:11:25.640Z,31.10
2017-12-23T03:12:25.647Z,28.60
2017-12-23T03:13:25.652Z,30.30
2017-12-23T03:14:25.662Z,33.40
2017-12-23T03:15:25.672Z,33.40
2017-12-23T03:16:25.686Z,27.70
2017-12-23T03:17:25.680Z,30.00
2017-12-23T03:18:25.694Z,28.80
2017-12-23T03:19:25.717Z,28.90
2017-12-23T03:20:25.708Z,28.10
2017-12-23T03:21:25.717Z,31.30
2017-12-23T03:22:25.723Z,30.30
2017-12-23T03:23:25.736Z,33.50
2017-12-23T03:24:25.737Z,29.30
2017-12-23T03:25:25.748Z,32.40
2017-12-23T03:26:25.755Z,28.70
2017-12-23T03:27:25.770Z,31.10
2017-12-23T03:28:25.775Z,34.70
2017-12-23T03:29:25.790Z,31.40
2017-12-23T03:30:25.796Z,32.50
2017-12-23T03:31:25.805Z,33.20
2017-12-23T03:32:25.815Z,33.80
2017-12-23T03:33:25.822Z,34.30
2017-12-23T03:34:25.887Z,37.50
2017-12-23T03:35:25.835Z,33.70
2017-12-23T03:36:25.838Z,32.50
2017-12-23T03:37:25.851Z,34.90
2017-12-23T03:38:25.855Z,34.80
2017-12-23T03:39:25.867Z,36.50
2017-12-23T03:40:25.869Z,35.20
2017-12-23T03:41:25.873Z,37.20
2017-12-23T03:42:25.888Z,38.60
2017-12-23T03:43:25.890Z,43.00
2017-12-23T03:44:25.909Z,45.80
2017-12-23T03:45:25.974Z,37.60
2017-12-23T03:46:25.922Z,45.50
2017-12-23T03:47:25.930Z,41.40
2017-12-23T03:48:25.937Z,40.70
2017-12-23T03:49:25.947Z,51.90
2017-12-23T03:50:25.953Z,47.10
2017-12-23T03:51:25.963Z,49.40
2017-12-23T03:52:25.966Z,46.80
2017-12-23T03:53:25.974Z,49.50
2017-12-23T03:54:25.986Z,52.30
2017-12-23T03:55:26.025Z,58.80
2017-12-23T03:56:26.000Z,51.70
2017-12-23T03:57:26.011Z,57.20
2017-12-23T03:58:26.023Z,53.90
2017-12-23T03:59:26.032Z,59.70
2017-12-23T04:00:26.033Z,55.70
2017-12-23T04:01:26.040Z,60.50
2017-12-23T04:02:26.049Z,55.30
2017-12-23T04:03:26.056Z,58.50
2017-12-23T04:04:26.066Z,53.00
2017-12-23T04:05:26.082Z,55.30
2017-12-23T04:06:26.082Z,59.10
2017-12-23T04:07:26.089Z,56.00
2017-12-23T04:08:26.096Z,58.40
2017-12-23T04:09:26.108Z,55.30
2017-12-23T04:10:26.115Z,56.90
2017-12-23T04:11:26.130Z,54.70
2017-12-23T04:12:26.130Z,54.60
2017-12-23T04:13:26.136Z,54.20
2017-12-23T04:14:26.144Z,50.80
2017-12-23T04:15:26.153Z,50.20
2017-12-23T04:16:26.165Z,43.90
2017-12-23T04:17:26.170Z,40.70
2017-12-23T04:18:26.180Z,41.40
2017-12-23T04:19:26.189Z,37.80
2017-12-23T04:20:26.194Z,40.50
2017-12-23T04:21:26.217Z,40.50
2017-12-23T04:22:26.210Z,33.80
2017-12-23T04:23:26.217Z,37.70
2017-12-23T04:24:26.224Z,41.20
2017-12-23T04:25:26.234Z,41.40
2017-12-23T04:26:26.240Z,40.60
2017-12-23T04:27:26.251Z,37.30
2017-12-23T04:28:26.343Z,40.90
2017-12-23T04:29:26.265Z,37.60
2017-12-23T04:30:26.274Z,40.40
2017-12-23T04:31:26.290Z,40.20
2017-12-23T04:32:26.291Z,44.90
2017-12-23T04:33:26.294Z,42.60
2017-12-23T04:34:26.306Z,42.50
2017-12-23T04:35:26.319Z,44.60
2017-12-23T04:36:26.325Z,45.20
2017-12-23T04:37:26.338Z,42.40
2017-12-23T04:38:26.342Z,46.50
2017-12-23T04:39:26.346Z,44.80
2017-12-23T04:40:26.361Z,45.80
2017-12-23T04:41:26.361Z,48.40
2017-12-23T04:42:26.369Z,51.90
2017-12-23T04:43:26.368Z,49.90
2017-12-23T04:44:26.386Z,50.60
2017-12-23T04:45:26.391Z,48.50
2017-12-23T04:46:26.401Z,49.00
2017-12-23T04:47:26.408Z,50.30
2017-12-23T04:48:26.415Z,55.70
2017-12-23T04:49:26.423Z,55.90
2017-12-23T04:50:26.432Z,56.50
2017-12-23T04:51:26.436Z,56.10
2017-12-23T04:52:26.448Z,60.70
2017-12-23T04:53:26.449Z,57.30
2017-12-23T04:54:26.459Z,59.00
2017-12-23T04:55:26.474Z,60.30
2017-12-23T04:56:26.494Z,57.40
2017-12-23T04:57:26.487Z,58.60
2017-12-23T04:58:26.499Z,60.10
2017-12-23T04:59:26.502Z,60.00
2017-12-23T05:00:26.525Z,60.20
2017-12-23T05:01:26.519Z,65.20
2017-12-23T05:02:26.528Z,60.00
2017-12-23T05:03:26.542Z,63.10
2017-12-23T05:04:26.541Z,60.10
2017-12-23T05:05:26.554Z,57.60
2017-12-23T05:06:26.561Z,58.30
2017-12-23T05:07:26.571Z,64.20
2017-12-23T05:08:26.581Z,58.70
2017-12-23T05:09:26.589Z,60.10
2017-12-23T05:10:26.615Z,60.60
2017-12-23T05:11:26.606Z,57.90
2017-12-23T05:12:26.611Z,60.00
2017-12-23T05:13:26.616Z,56.90
2017-12-23T05:14:26.625Z,58.40
2017-12-23T05:15:26.629Z,57.70
2017-12-23T05:16:26.635Z,57.50
2017-12-23T05:17:26.649Z,55.50
2017-12-23T05:18:26.660Z,54.40
2017-12-23T05:19:26.672Z,52.80
2017-12-23T05:20:26.687Z,50.50
2017-12-23T05:21:26.678Z,53.60
2017-12-23T05:22:26.694Z,53.00
2017-12-23T05:23:26.702Z,44.80
2017-12-23T05:24:26.711Z,36.30
2017-12-23T05:25:26.724Z,37.50
2017-12-23T05:26:26.727Z,34.50
2017-12-23T05:27:26.740Z,34.60
2017-12-23T05:28:26.787Z,33.40
2017-12-23T05:29:26.748Z,32.10
2017-12-23T05:30:26.759Z,33.20
2017-12-23T05:31:26.762Z,33.20
2017-12-23T05:32:26.770Z,29.20
2017-12-23T05:33:26.776Z,28.50
2017-12-23T05:34:26.789Z,28.30
2017-12-23T05:35:26.799Z,23.60
2017-12-23T05:36:26.809Z,28.50
2017-12-23T05:37:26.816Z,24.40
2017-12-23T05:38:26.821Z,27.50
2017-12-23T05:39:26.827Z,28.50
2017-12-23T05:40:26.848Z,30.00
2017-12-23T05:41:26.845Z,38.20
2017-12-23T05:42:26.859Z,39.50
2017-12-23T05:43:26.860Z,44.70
2017-12-23T05:44:26.939Z,48.80
2017-12-23T05:45:26.879Z,49.70
2017-12-23T05:46:26.887Z,54.90
2017-12-23T05:47:26.892Z,56.70
2017-12-23T05:48:26.893Z,52.30
2017-12-23T05:49:26.912Z,58.50
2017-12-23T05:50:26.917Z,59.70
2017-12-23T05:51:26.926Z,55.30
2017-12-23T05:52:26.933Z,54.30
2017-12-23T05:53:26.944Z,52.10
2017-12-23T05:54:26.943Z,57.00
2017-12-23T05:55:26.962Z,54.80
2017-12-23T05:56:26.974Z,56.60
2017-12-23T05:57:26.978Z,55.90
2017-12-23T05:58:26.976Z,57.30
2017-12-23T05:59:26.986Z,49.90
2017-12-23T06:00:26.995Z,54.70
2017-12-23T06:01:27.007Z,53.30
2017-12-23T06:02:27.010Z,48.10
2017-12-23T06:03:27.022Z,47.90
2017-12-23T06:04:27.016Z,38.20
2017-12-23T06:05:27.038Z,40.90
2017-12-23T06:06:27.041Z,34.40
2017-12-23T06:07:27.076Z,38.00
2017-12-23T06:08:27.058Z,36.30
2017-12-23T06:09:27.075Z,39.60
2017-12-23T06:10:27.081Z,33.40
2017-12-23T06:11:27.081Z,30.70
2017-12-23T06:12:27.094Z,24.50
2017-12-23T06:13:27.101Z,29.40
2017-12-23T06:14:27.108Z,27.00
2017-12-23T06:15:27.130Z,28.20
2017-12-23T06:16:27.129Z,26.60
2017-12-23T06:17:27.133Z,24.70
2017-12-23T06:18:27.144Z,24.30
2017-12-23T06:19:27.153Z,27.40
2017-12-23T06:20:27.159Z,25.50
2017-12-23T06:21:27.158Z,27.40
2017-12-23T06:22:27.890Z,26.60
2017-12-23T06:23:27.180Z,28.60
2017-12-23T06:24:27.194Z,27.30
2017-12-23T06:25:27.196Z,26.10
2017-12-23T06:26:27.211Z,27.80
2017-12-23T06:27:27.210Z,26.80
2017-12-23T06:28:27.215Z,27.80
2017-12-23T06:29:27.224Z,25.20
2017-12-23T06:30:27.230Z,25.60
2017-12-23T06:31:27.234Z,24.10
2017-12-23T06:32:27.242Z,26.40
2017-12-23T06:33:27.255Z,28.90
2017-12-23T06:34:27.262Z,26.50
2017-12-23T06:35:27.280Z,27.20
2017-12-23T06:36:27.281Z,26.80
2017-12-23T06:37:27.290Z,22.70
2017-12-23T06:38:27.291Z,29.00
2017-12-23T06:39:27.302Z,25.20
2017-12-23T06:40:27.321Z,29.00
2017-12-23T06:41:27.316Z,30.70
2017-12-23T06:42:27.325Z,28.00
2017-12-23T06:43:27.331Z,26.30
2017-12-23T06:44:27.335Z,30.80
2017-12-23T06:45:27.354Z,26.20
2017-12-23T06:46:27.361Z,29.40
2017-12-23T06:47:27.361Z,28.90
2017-12-23T06:48:27.373Z,31.50
2017-12-23T06:49:27.390Z,29.00
2017-12-23T06:50:27.393Z,27.90
2017-12-23T06:51:27.399Z,33.00
2017-12-23T06:52:27.396Z,29.80
2017-12-23T06:53:27.413Z,29.80
2017-12-23T06:54:27.413Z,30.30
2017-12-23T06:55:27.521Z,27.60
2017-12-23T06:56:27.441Z,29.70
2017-12-23T06:57:27.434Z,29.50
2017-12-23T06:58:27.457Z,31.40
2017-12-23T06:59:27.460Z,31.60
2017-12-23T07:00:27.468Z,35.40
2017-12-23T07:01:27.475Z,32.20
2017-12-23T07:02:27.496Z,31.70
2017-12-23T07:03:27.490Z,34.30
2017-12-23T07:04:27.501Z,30.30
2017-12-23T07:05:27.508Z,28.40
2017-12-23T07:06:27.516Z,28.70
2017-12-23T07:07:27.517Z,26.00
2017-12-23T07:08:27.530Z,28.70
2017-12-23T07:09:27.546Z,32.50
2017-12-23T07:10:27.545Z,26.80
2017-12-23T07:11:27.554Z,26.60
2017-12-23T07:12:27.561Z,24.90
2017-12-23T07:13:27.568Z,27.30
2017-12-23T07:14:27.573Z,27.50
2017-12-23T07:15:27.587Z,26.50
2017-12-23T07:16:27.598Z,27.80
2017-12-23T07:17:27.600Z,28.10
2017-12-23T07:18:27.601Z,26.00
2017-12-23T07:19:27.616Z,28.60
2017-12-23T07:20:27.626Z,30.90
2017-12-23T07:21:27.635Z,29.30
2017-12-23T07:22:27.641Z,29.40
2017-12-23T07:23:27.667Z,28.40
2017-12-23T07:24:27.655Z,33.20
2017-12-23T07:25:27.660Z,29.90
2017-12-23T07:26:27.670Z,30.60
2017-12-23T07:27:27.683Z,29.70
2017-12-23T07:28:27.686Z,32.70
2017-12-23T07:29:27.695Z,34.10
2017-12-23T07:30:27.699Z,31.50
2017-12-23T07:31:27.713Z,30.70
2017-12-23T07:32:27.715Z,31.60
2017-12-23T07:33:27.712Z,34.30
2017-12-23T07:34:27.733Z,34.20
2017-12-23T07:35:27.740Z,35.70
2017-12-23T07:36:27.750Z,40.00
2017-12-23T07:37:27.755Z,37.30
2017-12-23T07:38:27.762Z,37.20
2017-12-23T07:39:27.770Z,38.50
2017-12-23T07:40:27.781Z,45.00
2017-12-23T07:41:27.782Z,41.20
2017-12-23T07:42:27.793Z,39.20
2017-12-23T07:43:27.802Z,40.00
2017-12-23T07:44:27.808Z,45.10
2017-12-23T07:45:27.818Z,41.70
2017-12-23T07:46:27.826Z,42.20
2017-12-23T07:47:27.830Z,40.90
2017-12-23T07:48:27.837Z,44.90
2017-12-23T07:49:27.847Z,43.00
2017-12-23T07:50:27.856Z,44.40
2017-12-23T07:51:27.862Z,42.70
2017-12-23T07:52:27.868Z,45.00
2017-12-23T07:53:27.875Z,43.60
2017-12-23T07:54:27.889Z,45.10
2017-12-23T07:55:27.907Z,45.30
2017-12-23T07:56:27.919Z,51.70
2017-12-23T07:57:27.909Z,43.60
2017-12-23T07:58:27.913Z,50.00
2017-12-23T07:59:27.929Z,49.50
2017-12-23T08:00:27.940Z,51.20
2017-12-23T08:01:28.007Z,52.40
2017-12-23T08:02:27.959Z,53.10
2017-12-23T08:03:27.955Z,49.50
2017-12-23T08:05:27.968Z,53.60
2017-12-23T08:06:27.981Z,49.40
2017-12-23T08:07:27.982Z,53.90
2017-12-23T08:08:27.998Z,47.80
2017-12-23T08:09:28.006Z,48.00
2017-12-23T08:10:28.016Z,52.90
2017-12-23T08:11:28.009Z,58.90
2017-12-23T08:12:28.035Z,57.50
2017-12-23T08:13:28.044Z,54.70
2017-12-23T08:14:28.041Z,60.40
2017-12-23T08:15:28.113Z,55.50
2017-12-23T08:16:28.058Z,62.40
2017-12-23T08:17:28.073Z,54.30
2017-12-23T08:18:28.077Z,51.50
2017-12-23T08:19:28.083Z,56.10
2017-12-23T08:20:28.091Z,53.60
2017-12-23T08:21:28.098Z,52.00
2017-12-23T08:22:28.106Z,49.40
2017-12-23T08:23:28.114Z,54.60
2017-12-23T08:24:28.117Z,51.10
2017-12-23T08:25:28.127Z,58.40
2017-12-23T08:26:28.132Z,60.70
2017-12-23T08:27:28.145Z,59.00
2017-12-23T08:28:28.149Z,64.90
2017-12-23T08:29:28.159Z,59.80
2017-12-23T08:30:28.165Z,60.00
2017-12-23T08:31:28.166Z,59.40
2017-12-23T08:32:28.181Z,59.50
2017-12-23T08:33:28.187Z,59.60
2017-12-23T08:34:28.296Z,59.10
2017-12-23T08:35:28.207Z,65.10
2017-12-23T08:36:28.215Z,64.80
2017-12-23T08:37:28.218Z,68.00
2017-12-23T08:38:28.238Z,65.90
2017-12-23T08:39:28.239Z,59.90
2017-12-23T08:40:28.244Z,61.50
2017-12-23T08:41:28.257Z,60.60
2017-12-23T08:42:28.260Z,65.50
2017-12-23T08:43:28.280Z,58.00
2017-12-23T08:44:28.278Z,61.40
2017-12-23T08:45:28.291Z,58.50
2017-12-23T08:46:28.295Z,55.30
2017-12-23T08:47:28.305Z,57.90
2017-12-23T08:48:28.308Z,56.60
2017-12-23T08:49:28.308Z,51.00
2017-12-23T08:50:28.333Z,49.10
2017-12-23T08:51:28.337Z,47.70
2017-12-23T08:52:28.344Z,52.60
2017-12-23T08:53:28.350Z,52.50
2017-12-23T08:54:28.362Z,54.20
2017-12-23T08:55:28.366Z,52.80
2017-12-23T08:56:28.371Z,57.80
2017-12-23T08:57:28.382Z,50.40
2017-12-23T08:58:28.379Z,50.00
2017-12-23T08:59:28.398Z,47.10
2017-12-23T09:00:28.407Z,55.80
2017-12-23T09:01:28.415Z,48.50
2017-12-23T09:02:28.448Z,47.40
2017-12-23T09:03:28.432Z,55.40
2017-12-23T09:04:28.425Z,52.70
2017-12-23T09:05:28.442Z,50.50
2017-12-23T09:06:28.462Z,51.80
2017-12-23T09:07:28.471Z,50.30
2017-12-23T09:08:28.468Z,55.30
2017-12-23T09:09:28.484Z,55.80
2017-12-23T09:10:28.487Z,56.40
2017-12-23T09:11:28.495Z,56.90
2017-12-23T09:12:29.422Z,53.20
2017-12-23T09:13:28.508Z,54.40
2017-12-23T09:14:28.519Z,52.70
2017-12-23T09:15:28.524Z,55.40
2017-12-23T09:16:28.537Z,52.20
2017-12-23T09:17:28.542Z,55.80
2017-12-23T09:18:28.547Z,59.20
2017-12-23T09:19:28.567Z,51.90
2017-12-23T09:20:28.565Z,66.40
2017-12-23T09:21:28.574Z,63.80
2017-12-23T09:22:28.584Z,68.50
2017-12-23T09:23:28.592Z,60.00
2017-12-23T09:24:28.600Z,55.40
2017-12-23T09:25:28.617Z,60.80
2017-12-23T09:26:28.616Z,55.10
2017-12-23T09:27:28.625Z,66.00
2017-12-23T09:28:28.627Z,61.20
2017-12-23T09:29:28.639Z,59.60
2017-12-23T09:30:28.648Z,55.10
2017-12-23T09:31:28.655Z,55.20
2017-12-23T09:32:28.668Z,57.10
2017-12-23T09:33:28.674Z,57.00
2017-12-23T09:34:28.677Z,59.70
2017-12-23T09:35:28.749Z,54.70
2017-12-23T09:36:28.700Z,55.00
2017-12-23T09:37:28.697Z,56.80
2017-12-23T09:38:28.710Z,58.30
2017-12-23T09:39:28.720Z,63.40
2017-12-23T09:40:28.753Z,61.40
2017-12-23T09:41:28.742Z,61.20
2017-12-23T09:42:28.752Z,54.00
2017-12-23T09:43:28.748Z,56.50
2017-12-23T09:44:28.762Z,60.50
2017-12-23T09:45:28.770Z,57.80
2017-12-23T09:46:28.777Z,53.60
2017-12-23T09:47:28.799Z,55.10
2017-12-23T09:48:28.793Z,54.20
2017-12-23T09:49:28.803Z,51.10
2017-12-23T09:50:28.905Z,54.90
2017-12-23T09:51:28.830Z,56.70
2017-12-23T09:52:28.832Z,58.50
2017-12-23T09:53:28.839Z,53.20
2017-12-23T09:54:28.840Z,58.30
2017-12-23T09:55:28.851Z,55.60
2017-12-23T09:56:28.866Z,55.90
2017-12-23T09:57:28.873Z,51.90
2017-12-23T09:58:28.877Z,55.60
2017-12-23T09:59:28.887Z,56.70
2017-12-23T10:00:28.895Z,55.00
2017-12-23T10:01:28.906Z,55.50
2017-12-23T10:02:28.909Z,56.10
2017-12-23T10:03:28.911Z,56.70
2017-12-23T10:04:28.929Z,57.10
2017-12-23T10:05:28.933Z,54.40
2017-12-23T10:06:28.951Z,56.50
2017-12-23T10:07:28.966Z,53.00
2017-12-23T10:08:28.966Z,55.10
2017-12-23T10:09:28.968Z,49.90
2017-12-23T10:10:28.973Z,49.70
2017-12-23T10:12:28.995Z,53.10
2017-12-23T10:13:29.061Z,52.40
2017-12-23T10:14:29.015Z,59.50
2017-12-23T10:15:29.034Z,60.30
2017-12-23T10:16:29.026Z,58.60
2017-12-23T10:17:29.042Z,46.60
2017-12-23T10:18:29.047Z,53.20
2017-12-23T10:19:29.051Z,51.60
2017-12-23T10:20:29.062Z,55.10
2017-12-23T10:21:29.077Z,52.00
2017-12-23T10:22:29.078Z,53.40
2017-12-23T10:23:29.074Z,50.60
2017-12-23T10:25:29.119Z,50.60
2017-12-23T10:27:29.123Z,53.40
2017-12-23T10:28:29.138Z,56.20
2017-12-23T10:29:29.144Z,45.00
2017-12-23T10:30:29.147Z,52.30
2017-12-23T10:31:29.162Z,46.00
2017-12-23T10:32:29.161Z,52.20
2017-12-23T10:33:29.163Z,46.90
2017-12-23T10:34:29.172Z,44.20
2017-12-23T10:35:29.196Z,47.30
2017-12-23T10:36:29.199Z,56.20
2017-12-23T10:37:29.214Z,52.80
2017-12-23T10:38:29.209Z,50.90
2017-12-23T10:39:29.227Z,51.00
2017-12-23T10:40:29.233Z,51.90
2017-12-23T10:41:29.250Z,52.80
2017-12-23T10:42:29.243Z,45.00
2017-12-23T10:43:29.253Z,46.90
2017-12-23T10:44:29.262Z,50.60
2017-12-23T10:45:29.269Z,51.30
2017-12-23T10:46:29.278Z,46.50
2017-12-23T10:47:29.282Z,48.90
2017-12-23T10:48:29.293Z,47.70
2017-12-23T10:49:29.306Z,48.20
2017-12-23T10:50:29.310Z,47.90
2017-12-23T10:51:29.408Z,46.40
2017-12-23T10:52:29.324Z,49.90
2017-12-23T10:53:29.332Z,51.30
2017-12-23T10:54:29.351Z,47.70
2017-12-23T10:55:29.354Z,52.50
2017-12-23T10:56:29.361Z,47.00
2017-12-23T10:57:29.373Z,49.80
2017-12-23T10:58:29.376Z,51.10
2017-12-23T10:59:29.389Z,48.60
2017-12-23T11:00:29.395Z,49.20
2017-12-23T11:01:29.398Z,48.00
2017-12-23T11:02:29.412Z,46.80
2017-12-23T11:03:29.408Z,52.80
2017-12-23T11:04:29.435Z,47.70
2017-12-23T11:05:29.443Z,49.90
2017-12-23T11:06:29.443Z,51.60
2017-12-23T11:07:29.453Z,48.60
2017-12-23T11:08:29.463Z,44.50
2017-12-23T11:09:29.470Z,43.50
2017-12-23T11:10:29.469Z,44.80
2017-12-23T11:11:29.487Z,44.60
2017-12-23T11:12:29.494Z,46.00
2017-12-23T11:13:29.503Z,45.10
2017-12-23T11:14:29.527Z,43.00
2017-12-23T11:15:29.536Z,45.50
2017-12-23T11:16:29.528Z,46.30
2017-12-23T11:17:29.541Z,48.10
2017-12-23T11:18:29.549Z,46.10
2017-12-23T11:19:29.551Z,45.50
2017-12-23T11:20:29.564Z,45.50
2017-12-23T11:21:29.572Z,44.10
2017-12-23T11:22:29.578Z,45.40
2017-12-23T11:23:29.591Z,42.30
2017-12-23T11:24:29.607Z,43.00
2017-12-23T11:25:29.620Z,41.90
2017-12-23T11:26:29.611Z,40.90
2017-12-23T11:27:29.629Z,42.10
2017-12-23T11:28:29.646Z,40.50
2017-12-23T11:29:29.688Z,38.90
2017-12-23T11:30:29.654Z,41.10
2017-12-23T11:31:29.657Z,44.20
2017-12-23T11:32:29.670Z,38.30
2017-12-23T11:33:29.672Z,38.80
2017-12-23T11:34:29.683Z,40.40
2017-12-23T11:35:29.692Z,39.20
2017-12-23T11:36:29.699Z,38.10
2017-12-23T11:37:29.708Z,37.80
2017-12-23T11:38:29.729Z,42.10
2017-12-23T11:39:29.792Z,38.50
2017-12-23T11:40:29.733Z,39.60
2017-12-23T11:41:29.741Z,39.80
2017-12-23T11:42:29.752Z,47.30
2017-12-23T11:43:29.755Z,41.20
2017-12-23T11:44:29.767Z,45.40
2017-12-23T11:45:29.787Z,39.10
2017-12-23T11:46:29.788Z,39.10
2017-12-23T11:47:29.786Z,36.70
2017-12-23T11:48:29.801Z,38.30
2017-12-23T11:49:29.809Z,35.70
2017-12-23T11:50:29.816Z,34.90
2017-12-23T11:51:29.828Z,36.60
2017-12-23T11:52:29.827Z,36.50
2017-12-23T11:53:29.841Z,33.50
2017-12-23T11:54:29.854Z,35.40
2017-12-23T11:55:29.867Z,35.00
2017-12-23T11:56:29.871Z,30.90
2017-12-23T11:57:29.878Z,34.20
2017-12-23T11:58:29.886Z,33.90
2017-12-23T11:59:29.894Z,33.60
2017-12-23T12:00:29.900Z,29.90
2017-12-23T12:01:29.911Z,35.50
2017-12-23T12:02:29.948Z,32.30
2017-12-23T12:03:29.929Z,38.60
2017-12-23T12:04:29.995Z,34.00
2017-12-23T12:05:29.948Z,35.10
2017-12-23T12:06:29.952Z,37.00
2017-12-23T12:07:29.972Z,35.80
2017-12-23T12:08:29.970Z,36.50
2017-12-23T12:09:29.981Z,35.40
2017-12-23T12:10:29.987Z,36.50
2017-12-23T12:11:29.996Z,36.50
2017-12-23T12:12:30.004Z,33.90
2017-12-23T12:13:30.016Z,34.10
2017-12-23T12:14:30.024Z,34.40
2017-12-23T12:15:30.034Z,35.20
2017-12-23T12:16:30.041Z,34.90
2017-12-23T12:17:30.049Z,34.30
2017-12-23T12:18:30.059Z,31.40
2017-12-23T12:19:30.065Z,30.50
2017-12-23T12:20:30.079Z,35.40
2017-12-23T12:21:30.096Z,36.90
2017-12-23T12:22:30.092Z,38.80
2017-12-23T12:23:30.103Z,36.50
2017-12-23T12:24:30.116Z,33.30
2017-12-23T12:25:30.120Z,34.30
2017-12-23T12:26:30.130Z,37.80
2017-12-23T12:27:30.141Z,36.70
2017-12-23T12:28:30.151Z,33.30
2017-12-23T12:29:30.154Z,37.90
2017-12-23T12:30:30.167Z,33.90
2017-12-23T12:31:30.173Z,34.80
2017-12-23T12:32:30.177Z,31.30
2017-12-23T12:33:30.189Z,38.10
2017-12-23T12:34:30.192Z,37.70
2017-12-23T12:35:30.205Z,34.50
2017-12-23T12:36:30.214Z,33.80
2017-12-23T12:37:30.222Z,32.00
2017-12-23T12:38:30.229Z,30.30
2017-12-23T12:39:30.242Z,30.70
2017-12-23T12:40:30.277Z,32.30
2017-12-23T12:41:30.292Z,29.30
2017-12-23T12:42:30.267Z,30.00
2017-12-23T12:43:30.263Z,33.10
2017-12-23T12:44:30.285Z,30.90
2017-12-23T12:45:30.293Z,29.10
2017-12-23T12:46:30.303Z,33.60
2017-12-23T12:47:30.303Z,28.00
2017-12-23T12:48:30.317Z,30.30
2017-12-23T12:49:30.329Z,28.50
2017-12-23T12:50:30.336Z,30.00
2017-12-23T12:51:30.346Z,28.10
2017-12-23T12:52:30.354Z,30.80
2017-12-23T12:53:30.360Z,30.80
2017-12-23T12:54:30.375Z,33.10
2017-12-23T12:55:30.392Z,33.10
2017-12-23T12:56:30.386Z,35.70